Flight Track Log - Related Links

Times and Time Zones

All times are in EDT time to prevent confusion due to time zone crossing. See the N561EJ flight status page for this flight to view local times or setup timezone preferences in your user account.

Time Position Orientation Groundspeed Altitude Reporting Facility
EDT Latitude Longitude Course Direction KTS MPH feet Rate Location/Type
Thu 05:33:51 PM 29.6375 -95.6589 North 169 194 800  Level Houston Center
Thu 05:34:28 PM 29.6669 -95.6581 North 170 196 1,800 1,823 Climbing Houston Center
Thu 05:35:10 PM 29.6750 -95.6200 76° East 234 269 3,200 2,239 Climbing Houston Center
Thu 05:35:35 PM 29.6567 -95.5919 127° Southeast 252 290 4,300 2,419 Climbing Houston Center
Thu 05:36:12 PM 29.6417 -95.5519 113° Southeast 249 287 5,700 2,557 Climbing Houston Center
Thu 05:36:36 PM 29.6347 -95.5128 102° East 274 315 6,900 2,516 Climbing Houston Center
Thu 05:37:14 PM 29.6297 -95.4681 97° East 267 307 8,300 2,182 Climbing Houston Center
Thu 05:37:31 PM 29.6319 -95.4339 86° East 277 319 8,900 1,645 Climbing Houston Center
Thu 05:38:16 PM 29.6386 -95.3772 82° East 284 327 10,000 1,121 Climbing Houston Center
Thu 05:39:18 PM 29.6483 -95.2761 84° East 310 357 10,900 1,258 Climbing Houston Center
Thu 05:40:20 PM 29.6556 -95.1714 85° East 316 364 12,600 1,694 Climbing Houston Center
Thu 05:41:22 PM 29.6647 -95.0642 84° East 326 375 14,400 1,935 Climbing Houston Center
Thu 05:42:24 PM 29.6728 -94.9592 85° East 329 379 16,600 2,226 Climbing Houston Center
Thu 05:43:26 PM 29.6825 -94.8356 85° East 325 374 19,000 1,984 Climbing Houston Center
Thu 05:44:28 PM 29.6914 -94.7308 84° East 327 376 20,700 1,694 Climbing Houston Center
Thu 05:45:30 PM 29.6992 -94.6239 85° East 334 384 22,500 1,306 Climbing Houston Center
Thu 05:46:32 PM 29.7081 -94.5131 85° East 345 397 23,400 1,258 Climbing Houston Center
Thu 05:47:34 PM 29.7161 -94.3972 85° East 360 414 25,100 1,597 Climbing Houston Center
Thu 05:48:36 PM 29.7161 -94.2831 90° East 360 414 26,700 1,610 Climbing Houston Center
Thu 05:49:37 PM 29.6986 -94.1594 99° East 361 415 28,400 1,610 Climbing Houston Center
Thu 05:50:39 PM 29.6869 -94.0481 97° East 357 411 30,000 1,258 Climbing Houston Center
Thu 05:51:41 PM 29.6800 -93.9367 94° East 353 406 31,000 484 Climbing Houston Center
Thu 05:52:43 PM 29.7011 -93.7917 80° East 383 441 31,000  Level Houston Center
Thu 05:53:45 PM 29.7317 -93.6664 74° East 405 466 31,000  Level Houston Center
Thu 05:54:46 PM 29.7556 -93.5344 78° East 419 482 31,000  Level Houston Center
Thu 05:55:48 PM 29.7833 -93.4028 76° East 428 493 31,000  Level Houston Center
Thu 05:56:50 PM 29.8106 -93.2694 77° East 431 496 31,000  Level Houston Center
Thu 05:57:52 PM 29.8433 -93.1089 77° East 432 497 31,000  Level Houston Center
Thu 05:58:54 PM 29.8700 -92.9747 77° East 433 498 31,000  Level Houston Center
Thu 05:59:55 PM 29.8978 -92.8403 77° East 433 498 31,000  Level Houston Center
Thu 06:00:57 PM 29.9253 -92.7058 77° East 434 499 31,000  Level Houston Center
Thu 06:01:59 PM 29.9542 -92.5708 76° East 435 501 31,000  Level Houston Center
Thu 06:03:01 PM 29.9797 -92.4367 78° East 433 498 31,000  Level Houston Center
Thu 06:04:03 PM 30.0289 -92.2811 70° East 432 497 31,000  Level Houston Center
Thu 06:05:04 PM 30.0703 -92.1506 70° East 435 501 31,000  Level Houston Center
Thu 06:06:06 PM 30.1078 -92.0197 72° East 433 498 31,000  Level Houston Center
Thu 06:07:08 PM 30.1483 -91.8925 70° East 427 491 31,000  Level Houston Center
Thu 06:08:10 PM 30.1958 -91.7697 66° East 421 484 31,000  Level Houston Center
Thu 06:09:12 PM 30.2400 -91.6367 69° East 419 482 31,000  Level Houston Center
Thu 06:10:13 PM 30.2831 -91.5100 68° East 423 487 31,000  Level Houston Center
Thu 06:11:15 PM 30.3256 -91.3842 69° East 421 484 31,000  Level Houston Center
Thu 06:12:17 PM 30.3533 -91.2517 76° East 428 493 31,000  Level Houston Center
Thu 06:13:19 PM 30.3753 -91.0892 81° East 428 493 31,000  Level Houston Center
Thu 06:14:20 PM 30.4022 -90.9564 77° East 426 490 31,000  Level Houston Center
Thu 06:15:22 PM 30.4314 -90.8231 76° East 428 493 31,000  Level Houston Center
Thu 06:16:24 PM 30.4656 -90.6911 73° East 429 494 31,000  Level Houston Center
Thu 06:17:26 PM 30.4825 -90.5536 82° East 432 497 31,000 -194 Level Houston Center
Thu 06:18:28 PM 30.4944 -90.4161 84° East 429 494 30,600 -390 Descending Houston Center
Thu 06:19:29 PM 30.4975 -90.2811 88° East 423 487 30,200 -927 Descending Houston Center
Thu 06:20:31 PM 30.5103 -90.1244 85° East 409 471 28,700 -1,403 Descending Houston Center
Thu 06:21:33 PM 30.5264 -90.0031 81° East 387 445 27,300 -1,403 Descending Houston Center
Thu 06:22:35 PM 30.5403 -89.8831 82° East 372 428 25,800 -1,500 Descending Houston Center
Thu 06:23:37 PM 30.5553 -89.7669 81° East 361 415 24,200 -1,790 Descending Houston Center
Thu 06:24:39 PM 30.5692 -89.6506 82° East 360 414 22,100 -2,000 Descending Houston Center
Thu 06:25:40 PM 30.5836 -89.5353 82° East 360 414 20,100 -2,098 Descending Houston Center
Thu 06:26:42 PM 30.5969 -89.4214 82° East 356 410 17,800 -2,226 Descending Houston Center
Thu 06:27:44 PM 30.6103 -89.3122 82° East 346 398 15,500 -2,177 Descending Houston Center
Thu 06:28:46 PM 30.6219 -89.2147 82° East 315 362 13,300 -2,177 Descending Houston Center
Thu 06:29:48 PM 30.6347 -89.1083 82° East 284 327 11,000 -1,610 Descending Houston Center
Thu 06:30:49 PM 30.6456 -89.0286 81° East 258 297 10,000 -1,122 Descending Houston Center
Thu 06:31:51 PM 30.6539 -88.9494 83° East 250 288 8,700 -1,161 Descending Houston Center
Thu 06:32:53 PM 30.6919 -88.8931 52° Northeast 252 290 7,600 -823 Descending Houston Center
Thu 06:33:55 PM 30.7569 -88.8439 33° Northeast 236 272 7,000 -293 Descending Houston Center
Thu 06:34:56 PM 30.8047 -88.8050 35° Northeast 216 249 7,000  Level Houston Center
Thu 06:35:58 PM 30.8514 -88.7644 37° Northeast 211 243 7,000  Level Houston Center
Thu 06:37:00 PM 30.8839 -88.7097 55° Northeast 230 265 7,000  Level Houston Center
Thu 06:38:02 PM 30.8858 -88.6456 88° East 203 234 7,000 -537 Level Houston Center
Thu 06:39:03 PM 30.8875 -88.5833 88° East 195 224 5,900 -1,707 Descending Houston Center
Thu 06:40:05 PM 30.8883 -88.5139 89° East 208 239 3,500 -1,887 Descending Houston Center
Thu 06:41:07 PM 30.8822 -88.4347 95° East 210 242 2,000 -732 Descending Houston Center
Thu 06:42:08 PM 30.8631 -88.3869 115° Southeast 179 206 2,000  Level Houston Center
Thu 06:43:10 PM 30.8278 -88.3578 145° Southeast 165 190 2,000  Level Houston Center
Thu 06:44:12 PM 30.7894 -88.3267 145° Southeast 164 189 2,000 -244 Level Houston Center
Thu 06:45:13 PM 30.7531 -88.2956 144° Southeast 165 190 1,500 -585 Descending Houston Center
Thu 06:46:15 PM 30.7272 -88.2733 144° Southeast 139 160 800 -581 Descending Houston Center
Thu 06:47:17 PM 30.6994 -88.2500 144° Southeast 124 143 300 -484 Descending Houston Center
Thu 06:49:00 PM 30.6914 -88.2428 103° East  Level Estimated

Login

Don't have an account? Register now (free) for customized features, flight alerts, and more!